Time;durP1;ratioP1;P1;durP2;ratioP2;P2;SDS_P1;SDS_P2;PMS_P1;PMS_P2;Temp;Humidity;BMP_temperature;BMP_pressure;BME280_temperature;BME280_humidity;BME280_pressure;Samples;Min_cycle;Max_cycle;Signal;HPM_P1;HPM_P2
2022/03/22 00:00:51;;;;;;;46.20;31.45;;;;;;;;;;5346528;27;20531;-69
2022/03/22 00:03:25;;;;;;;42.95;30.52;;;;;;;;;;5346394;27;20018;-69
2022/03/22 00:05:56;;;;;;;39.40;29.60;;;;;;;;;;5346509;27;20035;-68
2022/03/22 00:08:27;;;;;;;43.35;30.98;;;;;;;;;;5347170;27;20080;-68
2022/03/22 00:10:58;;;;;;;44.63;30.38;;;;;;;;;;5345579;27;20261;-68
2022/03/22 00:13:30;;;;;;;44.44;32.46;;;;;;;;;;5346272;27;20386;-68
2022/03/22 00:16:01;;;;;;;40.60;30.67;;;;;;;;;;5346651;27;20077;-67
2022/03/22 00:18:32;;;;;;;44.47;30.73;;;;;;;;;;5345849;27;20272;-67
2022/03/22 00:21:03;;;;;;;43.66;31.68;;;;;;;;;;5346492;27;20074;-68
2022/03/22 00:23:34;;;;;;;41.75;30.55;;;;;;;;;;5345500;27;20030;-68
2022/03/22 00:26:05;;;;;;;43.85;31.20;;;;;;;;;;5346348;27;20673;-69
2022/03/22 00:28:37;;;;;;;46.24;30.58;;;;;;;;;;5346531;27;20011;-68
2022/03/22 00:31:08;;;;;;;45.00;32.00;;;;;;;;;;5345465;27;20083;-69
2022/03/22 00:33:39;;;;;;;40.35;31.42;;;;;;;;;;5346279;27;20473;-68
2022/03/22 00:36:10;;;;;;;45.72;31.83;;;;;;;;;;5345457;27;20023;-69
2022/03/22 00:38:42;;;;;;;41.85;30.45;;;;;;;;;;5345425;27;20280;-69
2022/03/22 00:41:13;;;;;;;41.22;30.55;;;;;;;;;;5346106;27;20105;-69
2022/03/22 00:43:45;;;;;;;43.25;32.03;;;;;;;;;;5345597;27;20019;-69
2022/03/22 00:46:16;;;;;;;46.78;31.27;;;;;;;;;;5345231;27;20385;-69
2022/03/22 00:48:48;;;;;;;44.88;32.95;;;;;;;;;;5345495;27;20012;-69
2022/03/22 00:51:20;;;;;;;44.10;31.30;;;;;;;;;;5345976;27;20098;-68
2022/03/22 00:53:51;;;;;;;45.33;31.90;;;;;;;;;;5345036;27;20019;-69
2022/03/22 00:56:24;;;;;;;43.25;31.00;;;;;;;;;;5346117;27;20102;-69
2022/03/22 01:01:48;;;;;;;39.90;29.73;;;;;;;;;;5313226;27;20389;-69
2022/03/22 01:04:20;;;;;;;39.92;30.73;;;;;;;;;;5346055;27;20015;-68
2022/03/22 01:06:51;;;;;;;41.25;30.08;;;;;;;;;;5344222;27;20019;-70
2022/03/22 01:09:22;;;;;;;42.10;29.20;;;;;;;;;;5345734;27;20778;-67
2022/03/22 01:11:53;;;;;;;42.47;29.20;;;;;;;;;;5344973;27;20530;-69
2022/03/22 01:14:28;;;;;;;38.33;27.75;;;;;;;;;;5344740;27;20066;-68
2022/03/22 01:16:59;;;;;;;38.95;28.38;;;;;;;;;;5344849;27;20019;-68
2022/03/22 01:19:30;;;;;;;43.13;28.77;;;;;;;;;;5344892;27;20029;-68
2022/03/22 01:22:02;;;;;;;42.95;30.05;;;;;;;;;;5344260;27;20398;-69
2022/03/22 01:24:33;;;;;;;41.22;28.08;;;;;;;;;;5345095;27;20260;-69
2022/03/22 01:27:05;;;;;;;42.83;29.45;;;;;;;;;;5344066;27;20381;-69
2022/03/22 01:29:37;;;;;;;40.80;28.08;;;;;;;;;;5345138;27;20807;-69
2022/03/22 01:32:09;;;;;;;39.42;26.77;;;;;;;;;;5345059;27;20121;-68
2022/03/22 01:34:41;;;;;;;39.75;28.58;;;;;;;;;;5344187;27;20023;-68
2022/03/22 01:37:13;;;;;;;40.10;29.30;;;;;;;;;;5345109;27;20453;-69
2022/03/22 01:39:44;;;;;;;39.28;28.42;;;;;;;;;;5344933;27;20098;-68
2022/03/22 01:42:15;;;;;;;42.42;28.65;;;;;;;;;;5344319;27;20019;-68
2022/03/22 01:44:46;;;;;;;37.68;27.68;;;;;;;;;;5344380;27;20060;-68
2022/03/22 01:47:18;;;;;;;39.67;28.08;;;;;;;;;;5345068;27;20019;-68
2022/03/22 01:49:52;;;;;;;38.38;27.08;;;;;;;;;;5343578;27;20771;-68
2022/03/22 01:52:27;;;;;;;42.63;28.23;;;;;;;;;;5345186;27;20048;-69
2022/03/22 01:54:58;;;;;;;36.45;26.20;;;;;;;;;;5344290;28;20019;-69
2022/03/22 01:57:33;;;;;;;41.10;27.27;;;;;;;;;;5344401;28;20027;-69
2022/03/22 02:00:06;;;;;;;38.28;25.73;;;;;;;;;;5344866;28;20102;-69
2022/03/22 02:08:20;;;;;;;36.65;24.33;;;;;;;;;;5344925;28;20035;-68
2022/03/22 02:10:51;;;;;;;32.90;24.23;;;;;;;;;;5343760;28;20445;-68
2022/03/22 02:13:22;;;;;;;31.77;23.02;;;;;;;;;;5344868;28;20046;-69
2022/03/22 02:15:55;;;;;;;31.92;22.55;;;;;;;;;;5344229;28;20015;-69
2022/03/22 02:18:26;;;;;;;30.90;21.23;;;;;;;;;;5343966;28;20027;-69
2022/03/22 02:20:58;;;;;;;30.02;22.45;;;;;;;;;;5344138;28;20027;-69
2022/03/22 02:23:39;;;;;;;31.83;21.33;;;;;;;;;;5343370;28;20034;-70
2022/03/22 02:26:10;;;;;;;34.47;21.40;;;;;;;;;;5343849;28;20039;-69
2022/03/22 02:28:42;;;;;;;28.56;21.28;;;;;;;;;;5344368;28;20550;-69
2022/03/22 02:31:15;;;;;;;30.38;21.48;;;;;;;;;;5343578;28;20023;-68
2022/03/22 02:33:47;;;;;;;26.25;19.23;;;;;;;;;;5343911;28;20015;-70
2022/03/22 02:36:18;;;;;;;25.38;19.63;;;;;;;;;;5344726;28;20423;-68
2022/03/22 02:38:49;;;;;;;28.38;19.67;;;;;;;;;;5343150;28;20019;-70
2022/03/22 02:41:24;;;;;;;29.63;19.80;;;;;;;;;;5344652;28;20497;-69
2022/03/22 02:43:55;;;;;;;28.15;18.95;;;;;;;;;;5344138;28;20171;-70
2022/03/22 02:46:26;;;;;;;26.10;19.05;;;;;;;;;;5343849;28;20041;-68
2022/03/22 02:48:58;;;;;;;29.40;19.67;;;;;;;;;;5343914;28;20038;-69
2022/03/22 02:51:29;;;;;;;31.77;19.25;;;;;;;;;;5343655;28;20084;-69
2022/03/22 02:54:00;;;;;;;29.65;19.45;;;;;;;;;;5344234;28;20286;-69
2022/03/22 02:56:31;;;;;;;28.98;20.05;;;;;;;;;;5343748;28;20370;-69
2022/03/22 02:59:03;;;;;;;29.28;18.90;;;;;;;;;;5343264;27;20411;-69
2022/03/22 03:01:34;;;;;;;27.77;19.65;;;;;;;;;;5347696;27;20018;-69
2022/03/22 03:04:05;;;;;;;27.20;19.10;;;;;;;;;;5347884;27;20016;-68
2022/03/22 03:06:38;;;;;;;26.58;19.02;;;;;;;;;;5347016;27;20114;-69
2022/03/22 03:09:10;;;;;;;25.52;18.58;;;;;;;;;;5348026;27;20026;-68
2022/03/22 03:11:41;;;;;;;26.52;19.30;;;;;;;;;;5348060;27;20455;-68
2022/03/22 03:17:02;;;;;;;29.02;19.42;;;;;;;;;;5348139;27;20028;-69
2022/03/22 03:19:34;;;;;;;25.92;18.67;;;;;;;;;;5346707;27;20023;-68
2022/03/22 03:22:06;;;;;;;28.65;19.95;;;;;;;;;;5347715;27;20394;-68
2022/03/22 03:24:37;;;;;;;26.17;17.60;;;;;;;;;;5347483;27;20033;-68
2022/03/22 03:27:08;;;;;;;23.25;17.58;;;;;;;;;;5346663;27;20034;-68
2022/03/22 03:29:40;;;;;;;32.35;20.10;;;;;;;;;;5347746;27;20026;-68
2022/03/22 03:32:11;;;;;;;26.35;19.40;;;;;;;;;;5347656;27;20011;-68
2022/03/22 03:34:43;;;;;;;27.67;18.67;;;;;;;;;;5346802;27;20023;-68
2022/03/22 03:37:14;;;;;;;29.05;19.33;;;;;;;;;;5347422;27;20061;-68
2022/03/22 03:39:45;;;;;;;28.20;19.13;;;;;;;;;;5347021;27;20030;-69
2022/03/22 03:42:16;;;;;;;27.65;19.17;;;;;;;;;;5347076;27;20023;-68
2022/03/22 03:47:37;;;;;;;28.52;18.88;;;;;;;;;;5346435;27;20031;-68
2022/03/22 03:50:08;;;;;;;30.85;19.63;;;;;;;;;;5347043;27;20019;-68
2022/03/22 03:52:40;;;;;;;27.15;20.08;;;;;;;;;;5347310;27;20442;-68
2022/03/22 03:55:11;;;;;;;29.30;20.00;;;;;;;;;;5346382;27;20019;-69
2022/03/22 03:57:44;;;;;;;31.45;19.55;;;;;;;;;;5347170;27;20071;-69
2022/03/22 04:00:16;;;;;;;27.45;19.13;;;;;;;;;;5347209;27;20007;-69
2022/03/22 04:02:47;;;;;;;31.35;19.77;;;;;;;;;;5345785;27;20469;-68
2022/03/22 04:05:18;;;;;;;29.70;20.00;;;;;;;;;;5346945;27;20122;-69
2022/03/22 04:07:49;;;;;;;28.13;19.02;;;;;;;;;;5346492;27;20015;-69
2022/03/22 04:10:21;;;;;;;27.40;20.35;;;;;;;;;;5346274;27;20525;-69
2022/03/22 04:12:52;;;;;;;30.88;19.13;;;;;;;;;;5345096;27;20065;-69
2022/03/22 04:15:23;;;;;;;27.92;19.48;;;;;;;;;;5347155;27;20035;-69
2022/03/22 04:17:57;;;;;;;31.65;19.60;;;;;;;;;;5345554;27;20016;-69
2022/03/22 04:20:30;;;;;;;27.98;19.05;;;;;;;;;;5346695;27;20071;-69
2022/03/22 04:23:01;;;;;;;26.90;18.88;;;;;;;;;;5345477;27;20027;-69
2022/03/22 04:25:32;;;;;;;28.05;19.33;;;;;;;;;;5345924;27;20027;-69
2022/03/22 04:33:43;;;;;;;30.73;20.25;;;;;;;;;;5346420;27;20106;-69
2022/03/22 04:36:14;;;;;;;28.00;18.73;;;;;;;;;;5346273;27;20106;-68
2022/03/22 04:38:45;;;;;;;26.80;17.45;;;;;;;;;;5345142;27;20623;-68
2022/03/22 04:41:16;;;;;;;26.84;18.38;;;;;;;;;;5346385;27;20047;-69
2022/03/22 04:43:47;;;;;;;28.08;18.63;;;;;;;;;;5345398;27;20092;-69
2022/03/22 04:46:19;;;;;;;30.50;18.63;;;;;;;;;;5345629;27;20034;-68
2022/03/22 04:48:50;;;;;;;29.25;18.33;;;;;;;;;;5345467;27;20024;-69
2022/03/22 04:57:02;;;;;;;26.15;19.17;;;;;;;;;;5345588;27;20117;-69
2022/03/22 04:59:33;;;;;;;28.73;18.60;;;;;;;;;;5345017;27;20054;-69
2022/03/22 05:02:05;;;;;;;26.98;18.94;;;;;;;;;;5345574;27;20059;-69
2022/03/22 05:04:36;;;;;;;27.58;18.35;;;;;;;;;;5345434;27;20415;-69
2022/03/22 05:07:07;;;;;;;27.48;18.52;;;;;;;;;;5344539;27;20087;-68
2022/03/22 05:09:39;;;;;;;27.95;19.75;;;;;;;;;;5345328;27;20458;-69
2022/03/22 05:12:13;;;;;;;27.67;18.80;;;;;;;;;;5344547;27;20472;-69
2022/03/22 05:14:50;;;;;;;26.08;18.48;;;;;;;;;;5344743;27;20051;-68
2022/03/22 05:17:23;;;;;;;25.05;18.33;;;;;;;;;;5345610;27;20110;-69
2022/03/22 05:19:54;;;;;;;26.90;19.35;;;;;;;;;;5344265;27;20076;-69
2022/03/22 05:22:25;;;;;;;40.02;20.32;;;;;;;;;;5345300;27;20023;-68
2022/03/22 05:24:56;;;;;;;28.52;19.70;;;;;;;;;;5344932;27;20015;-67
2022/03/22 05:27:27;;;;;;;25.04;18.90;;;;;;;;;;5344551;27;20814;-68
2022/03/22 05:29:59;;;;;;;26.70;19.10;;;;;;;;;;5344743;27;20019;-67
2022/03/22 05:32:30;;;;;;;29.05;18.48;;;;;;;;;;5345320;27;20378;-69
2022/03/22 05:35:01;;;;;;;31.94;18.86;;;;;;;;;;5344348;27;20271;-68
2022/03/22 05:37:32;;;;;;;28.52;18.52;;;;;;;;;;5345042;27;20018;-68
2022/03/22 05:40:03;;;;;;;24.08;18.35;;;;;;;;;;5344735;27;20027;-68
2022/03/22 05:42:38;;;;;;;28.77;19.65;;;;;;;;;;5344447;27;20008;-69
2022/03/22 05:45:11;;;;;;;29.27;19.38;;;;;;;;;;5345006;27;20462;-69
2022/03/22 05:47:42;;;;;;;28.63;19.05;;;;;;;;;;5344162;27;20015;-69
2022/03/22 05:50:13;;;;;;;25.13;18.52;;;;;;;;;;5344887;27;20098;-69
2022/03/22 05:52:45;;;;;;;28.10;18.82;;;;;;;;;;5344343;27;20423;-69
2022/03/22 05:55:17;;;;;;;28.10;19.00;;;;;;;;;;5344389;27;20024;-68
2022/03/22 05:57:48;;;;;;;23.52;17.10;;;;;;;;;;5344491;27;20079;-70
2022/03/22 06:00:19;;;;;;;31.14;19.70;;;;;;;;;;5345275;27;20016;-69
2022/03/22 06:02:50;;;;;;;27.15;19.25;;;;;;;;;;5343674;28;20042;-69
2022/03/22 06:05:22;;;;;;;25.88;19.58;;;;;;;;;;5344912;28;20011;-69
2022/03/22 06:07:53;;;;;;;28.70;18.20;;;;;;;;;;5344457;28;20042;-69
2022/03/22 06:10:25;;;;;;;31.24;19.22;;;;;;;;;;5344234;28;20144;-69
2022/03/22 06:12:56;;;;;;;28.60;19.50;;;;;;;;;;5344057;28;20043;-69
2022/03/22 06:15:29;;;;;;;30.35;19.77;;;;;;;;;;5344088;28;20019;-69
2022/03/22 06:18:04;;;;;;;28.08;19.75;;;;;;;;;;5344367;28;20352;-68
2022/03/22 06:20:36;;;;;;;29.50;18.75;;;;;;;;;;5344515;28;20100;-69
2022/03/22 06:23:08;;;;;;;28.73;18.40;;;;;;;;;;5343754;28;20472;-69
2022/03/22 06:25:40;;;;;;;29.63;18.80;;;;;;;;;;5344382;28;20076;-68
2022/03/22 06:28:14;;;;;;;27.38;18.10;;;;;;;;;;5344244;28;20015;-68
2022/03/22 06:30:45;;;;;;;25.05;17.98;;;;;;;;;;5343218;28;20142;-68
2022/03/22 06:33:17;;;;;;;29.80;18.25;;;;;;;;;;5344805;28;20150;-68
2022/03/22 06:35:48;;;;;;;26.42;18.33;;;;;;;;;;5346903;27;20265;-68
2022/03/22 06:38:19;;;;;;;30.13;18.48;;;;;;;;;;5347994;27;20027;-68
2022/03/22 06:40:50;;;;;;;30.75;17.85;;;;;;;;;;5348130;27;20042;-69
2022/03/22 06:43:22;;;;;;;26.05;18.20;;;;;;;;;;5348371;27;20459;-68
2022/03/22 06:45:53;;;;;;;26.60;18.00;;;;;;;;;;5347629;27;20482;-68
2022/03/22 06:48:24;;;;;;;31.02;18.40;;;;;;;;;;5348446;27;20019;-68
2022/03/22 06:50:55;;;;;;;24.65;17.10;;;;;;;;;;5346745;27;20261;-68
2022/03/22 06:53:26;;;;;;;29.02;18.73;;;;;;;;;;5348463;27;20043;-68
2022/03/22 06:55:58;;;;;;;28.45;18.48;;;;;;;;;;5348018;27;20026;-69
2022/03/22 06:58:30;;;;;;;29.60;18.02;;;;;;;;;;5347410;27;20015;-69
2022/03/22 07:01:01;;;;;;;26.15;18.05;;;;;;;;;;5348040;27;20019;-69
2022/03/22 07:03:33;;;;;;;37.55;18.45;;;;;;;;;;5347970;27;20037;-69
2022/03/22 07:06:06;;;;;;;29.40;18.23;;;;;;;;;;5347362;27;20110;-69
2022/03/22 07:08:37;;;;;;;27.40;16.95;;;;;;;;;;5348074;27;20403;-69
2022/03/22 07:13:58;;;;;;;32.28;18.20;;;;;;;;;;5346703;27;20681;-68
2022/03/22 07:16:29;;;;;;;29.92;19.08;;;;;;;;;;5347731;27;20019;-68
2022/03/22 07:19:00;;;;;;;35.95;18.42;;;;;;;;;;5347001;27;20269;-68
2022/03/22 07:21:31;;;;;;;33.92;18.00;;;;;;;;;;5347244;27;20043;-69
2022/03/22 07:24:03;;;;;;;27.33;16.93;;;;;;;;;;5347714;27;20295;-69
2022/03/22 07:26:34;;;;;;;27.90;17.92;;;;;;;;;;5346614;27;20292;-68
2022/03/22 07:29:05;;;;;;;27.73;18.38;;;;;;;;;;5347180;27;20015;-68
2022/03/22 07:31:38;;;;;;;32.88;18.85;;;;;;;;;;5347363;27;20377;-68
2022/03/22 07:34:11;;;;;;;25.15;16.60;;;;;;;;;;5346393;27;20046;-70
2022/03/22 07:36:43;;;;;;;26.80;18.33;;;;;;;;;;5347219;27;20347;-68
2022/03/22 07:39:14;;;;;;;28.17;18.27;;;;;;;;;;5347326;27;20120;-68
2022/03/22 07:41:46;;;;;;;31.05;17.65;;;;;;;;;;5346298;27;20102;-69
2022/03/22 07:44:17;;;;;;;26.13;17.58;;;;;;;;;;5347512;27;20265;-68
2022/03/22 07:46:48;;;;;;;34.63;18.65;;;;;;;;;;5345782;27;20377;-68
2022/03/22 07:54:59;;;;;;;26.25;18.23;;;;;;;;;;5346075;27;20019;-70
2022/03/22 07:57:31;;;;;;;22.77;16.80;;;;;;;;;;5346777;27;20008;-69
2022/03/22 08:00:04;;;;;;;25.13;18.08;;;;;;;;;;5343323;27;20292;-70
2022/03/22 08:02:36;;;;;;;28.13;18.77;;;;;;;;;;5323302;28;20020;-69
2022/03/22 08:05:08;;;;;;;26.88;18.67;;;;;;;;;;5325322;28;20029;-69
2022/03/22 08:07:39;;;;;;;27.13;18.42;;;;;;;;;;5322900;28;20028;-69
2022/03/22 08:10:11;;;;;;;23.83;19.13;;;;;;;;;;5323315;28;20027;-70
2022/03/22 08:12:42;;;;;;;25.50;18.63;;;;;;;;;;5325272;28;20023;-69
2022/03/22 08:15:14;;;;;;;24.83;18.98;;;;;;;;;;5324425;28;20084;-69
2022/03/22 08:17:45;;;;;;;28.70;18.98;;;;;;;;;;5324767;28;20023;-70
2022/03/22 08:20:16;;;;;;;26.67;18.37;;;;;;;;;;5325357;28;20016;-70
2022/03/22 08:22:50;;;;;;;24.98;18.58;;;;;;;;;;5323687;28;20273;-70
2022/03/22 08:25:22;;;;;;;24.05;18.33;;;;;;;;;;5325466;28;20008;-69
2022/03/22 08:27:54;;;;;;;29.40;19.30;;;;;;;;;;5324762;28;20096;-70
2022/03/22 08:30:27;;;;;;;28.35;19.30;;;;;;;;;;5324378;28;20519;-69
2022/03/22 08:32:59;;;;;;;27.98;19.13;;;;;;;;;;5324378;28;20031;-69
2022/03/22 08:35:30;;;;;;;27.98;18.38;;;;;;;;;;5324853;28;20019;-68
2022/03/22 08:38:02;;;;;;;33.80;19.83;;;;;;;;;;5323850;28;20019;-67
2022/03/22 08:40:33;;;;;;;23.85;18.48;;;;;;;;;;5324611;28;20748;-68
2022/03/22 08:43:08;;;;;;;28.00;18.55;;;;;;;;;;5323888;28;20518;-68
2022/03/22 08:45:39;;;;;;;27.92;18.13;;;;;;;;;;5324477;28;20016;-68
2022/03/22 08:48:12;;;;;;;31.38;18.92;;;;;;;;;;5324701;28;20022;-68
2022/03/22 08:50:44;;;;;;;27.65;18.05;;;;;;;;;;5323849;28;20020;-68
2022/03/22 08:53:16;;;;;;;26.55;19.08;;;;;;;;;;5321327;28;20015;-68
2022/03/22 08:55:47;;;;;;;26.30;19.27;;;;;;;;;;5310299;28;20123;-68
2022/03/22 08:58:19;;;;;;;26.48;19.55;;;;;;;;;;5301956;28;20146;-69
2022/03/22 09:00:51;;;;;;;24.67;19.88;;;;;;;;;;5302652;28;20105;-68
2022/03/22 09:03:23;;;;;;;26.90;17.90;;;;;;;;;;5303349;28;20016;-68
2022/03/22 09:06:11;;;;;;;29.70;18.80;;;;;;;;;;5301809;28;20040;-68
2022/03/22 09:08:43;;;;;;;26.90;19.00;;;;;;;;;;5302750;28;20016;-68
2022/03/22 09:11:14;;;;;;;27.92;19.15;;;;;;;;;;5302470;28;20481;-68
2022/03/22 09:13:45;;;;;;;24.58;18.80;;;;;;;;;;5302201;28;20127;-67
2022/03/22 09:16:16;;;;;;;27.52;19.95;;;;;;;;;;5303172;28;20032;-68
2022/03/22 09:18:48;;;;;;;24.33;19.40;;;;;;;;;;5301900;28;20023;-68
2022/03/22 09:21:20;;;;;;;26.83;18.65;;;;;;;;;;5302892;28;20016;-67
2022/03/22 09:23:51;;;;;;;30.50;19.65;;;;;;;;;;5302048;28;20032;-67
2022/03/22 09:26:23;;;;;;;27.85;19.45;;;;;;;;;;5302350;28;20471;-67
2022/03/22 09:28:54;;;;;;;27.73;17.92;;;;;;;;;;5302220;28;20031;-67
2022/03/22 09:31:25;;;;;;;26.08;19.50;;;;;;;;;;5302645;28;20027;-67
2022/03/22 09:33:57;;;;;;;27.23;20.27;;;;;;;;;;5301607;28;20027;-67
2022/03/22 09:36:28;;;;;;;28.40;19.77;;;;;;;;;;5302622;28;20258;-67
2022/03/22 09:38:59;;;;;;;29.63;19.98;;;;;;;;;;5301988;28;20013;-67
2022/03/22 09:41:31;;;;;;;29.60;20.43;;;;;;;;;;5301848;28;20517;-67
2022/03/22 09:44:03;;;;;;;26.95;19.05;;;;;;;;;;5302323;28;20269;-67
2022/03/22 09:46:35;;;;;;;27.73;20.80;;;;;;;;;;5301731;28;20020;-67
2022/03/22 09:49:07;;;;;;;27.63;19.83;;;;;;;;;;5302471;28;20016;-68
2022/03/22 09:51:45;;;;;;;25.92;19.98;;;;;;;;;;5302189;28;20417;-67
2022/03/22 09:54:18;;;;;;;28.65;19.85;;;;;;;;;;5301619;28;20027;-68
2022/03/22 09:56:50;;;;;;;28.35;19.92;;;;;;;;;;5298110;28;20028;-69
2022/03/22 09:59:22;;;;;;;27.13;20.75;;;;;;;;;;5301273;28;20481;-68
2022/03/22 10:01:53;;;;;;;30.27;20.50;;;;;;;;;;5300714;28;20020;-69
2022/03/22 10:04:35;;;;;;;31.58;20.27;;;;;;;;;;5302135;28;20016;-68
2022/03/22 10:07:08;;;;;;;31.30;21.42;;;;;;;;;;5300985;28;20062;-69
2022/03/22 10:09:39;;;;;;;23.98;19.48;;;;;;;;;;5301647;28;20016;-69
2022/03/22 10:12:12;;;;;;;27.48;20.67;;;;;;;;;;5305585;28;20031;-69
2022/03/22 10:14:43;;;;;;;28.73;20.20;;;;;;;;;;5305102;28;20044;-70
2022/03/22 10:17:15;;;;;;;34.58;21.10;;;;;;;;;;5305556;28;20409;-70
2022/03/22 10:19:48;;;;;;;26.10;20.52;;;;;;;;;;5305817;28;20066;-70
2022/03/22 10:22:23;;;;;;;27.35;20.05;;;;;;;;;;5305564;28;20370;-69
2022/03/22 10:24:58;;;;;;;29.83;21.30;;;;;;;;;;5305710;28;20360;-70
2022/03/22 10:27:29;;;;;;;31.42;20.10;;;;;;;;;;5306196;28;20107;-70
2022/03/22 10:30:02;;;;;;;31.13;20.75;;;;;;;;;;5304852;28;20108;-68
2022/03/22 10:32:35;;;;;;;28.08;19.25;;;;;;;;;;5305727;28;20403;-68
2022/03/22 10:35:16;;;;;;;26.98;20.17;;;;;;;;;;5305827;28;20023;-68
2022/03/22 10:37:49;;;;;;;29.85;20.15;;;;;;;;;;5304496;28;20024;-68
2022/03/22 10:40:28;;;;;;;24.58;19.70;;;;;;;;;;5305779;28;20024;-68
2022/03/22 10:42:59;;;;;;;;;;;;;;;;;;5304762;28;20020;-68
2022/03/22 10:45:40;;;;;;;29.30;20.65;;;;;;;;;;5305499;28;19904;-69
2022/03/22 10:48:15;;;;;;;26.58;19.20;;;;;;;;;;5305824;28;20023;-69
2022/03/22 10:50:47;;;;;;;28.25;18.65;;;;;;;;;;5304303;28;20087;-70
2022/03/22 10:53:19;;;;;;;25.50;19.45;;;;;;;;;;5305552;28;20099;-70
2022/03/22 10:55:51;;;;;;;25.83;18.77;;;;;;;;;;5305043;28;20016;-70
2022/03/22 10:58:25;;;;;;;28.45;19.25;;;;;;;;;;5304974;28;20516;-69
2022/03/22 11:00:59;;;;;;;28.15;18.30;;;;;;;;;;5305193;28;20028;-69
2022/03/22 11:03:32;;;;;;;23.85;17.50;;;;;;;;;;5305113;28;20100;-69
2022/03/22 11:06:04;;;;;;;26.23;17.50;;;;;;;;;;5304515;28;20062;-69
2022/03/22 11:08:35;;;;;;;28.23;19.17;;;;;;;;;;5305056;28;20040;-67
2022/03/22 11:11:07;;;;;;;25.85;18.40;;;;;;;;;;5304009;28;20077;-69
2022/03/22 11:13:38;;;;;;;29.90;19.02;;;;;;;;;;5304583;28;20097;-68
2022/03/22 11:16:10;;;;;;;29.05;17.48;;;;;;;;;;5304969;28;20082;-68
2022/03/22 11:18:42;;;;;;;21.52;15.65;;;;;;;;;;5304452;28;20027;-68
2022/03/22 11:21:16;;;;;;;25.73;17.27;;;;;;;;;;5304551;28;20049;-68
2022/03/22 11:23:47;;;;;;;24.98;16.70;;;;;;;;;;5304394;28;20023;-69
2022/03/22 11:26:20;;;;;;;22.77;16.00;;;;;;;;;;5303950;28;20421;-68
2022/03/22 11:28:52;;;;;;;24.00;16.50;;;;;;;;;;5304199;28;20020;-68
2022/03/22 11:31:26;;;;;;;26.55;16.75;;;;;;;;;;5305122;28;20104;-68
2022/03/22 11:34:11;;;;;;;27.15;17.55;;;;;;;;;;5303321;28;20020;-68
2022/03/22 11:36:44;;;;;;;25.05;16.63;;;;;;;;;;5304512;28;20039;-67
2022/03/22 11:39:19;;;;;;;27.15;16.90;;;;;;;;;;5304303;28;20149;-67
2022/03/22 11:44:40;;;;;;;24.63;16.50;;;;;;;;;;5304385;28;20020;-68
2022/03/22 11:47:14;;;;;;;23.80;16.50;;;;;;;;;;5303309;28;20553;-68
2022/03/22 11:50:01;;;;;;;31.15;17.48;;;;;;;;;;5304289;28;20608;-68
2022/03/22 11:52:33;;;;;;;28.30;17.45;;;;;;;;;;5304077;28;20027;-69
2022/03/22 11:55:08;;;;;;;24.23;15.68;;;;;;;;;;5303486;28;20032;-69
2022/03/22 11:57:50;;;;;;;25.17;17.20;;;;;;;;;;5303726;28;20027;-69
2022/03/22 12:00:42;;;;;;;25.77;16.13;;;;;;;;;;5303635;28;20045;-68
2022/03/22 12:03:14;;;;;;;26.73;18.55;;;;;;;;;;5303814;28;20016;-68
2022/03/22 12:05:46;;;;;;;24.48;17.23;;;;;;;;;;5303825;28;20063;-69
2022/03/22 12:08:17;;;;;;;30.50;17.15;;;;;;;;;;5302704;28;20055;-68
2022/03/22 12:10:49;;;;;;;23.77;16.63;;;;;;;;;;5303764;28;20224;-69
2022/03/22 12:13:21;;;;;;;24.08;17.17;;;;;;;;;;5303838;28;20522;-69
2022/03/22 12:16:10;;;;;;;25.73;17.17;;;;;;;;;;5302571;28;20205;-69
2022/03/22 12:18:42;;;;;;;24.15;16.80;;;;;;;;;;5303886;28;20048;-69
2022/03/22 12:21:17;;;;;;;26.95;17.98;;;;;;;;;;5303448;28;20019;-69
2022/03/22 12:23:48;;;;;;;22.92;16.13;;;;;;;;;;5303426;28;20020;-68
2022/03/22 12:26:20;;;;;;;23.65;15.90;;;;;;;;;;5303924;28;20035;-69
2022/03/22 12:28:52;;;;;;;27.42;18.40;;;;;;;;;;5302638;28;20024;-69
2022/03/22 12:31:25;;;;;;;22.58;16.10;;;;;;;;;;5303991;28;20023;-68
2022/03/22 12:33:57;;;;;;;28.63;17.85;;;;;;;;;;5302457;28;20379;-70
2022/03/22 12:36:28;;;;;;;28.75;18.88;;;;;;;;;;5303280;28;20473;-69
2022/03/22 12:38:59;;;;;;;25.20;17.88;;;;;;;;;;5303113;28;20055;-69
2022/03/22 12:41:30;;;;;;;24.97;15.67;;;;;;;;;;5303719;28;20031;-69
2022/03/22 12:44:02;;;;;;;27.20;16.52;;;;;;;;;;5302429;28;20290;-69
2022/03/22 12:46:33;;;;;;;25.60;15.25;;;;;;;;;;5303379;28;20425;-69
2022/03/22 12:49:05;;;;;;;23.83;13.55;;;;;;;;;;5302695;28;20022;-70
2022/03/22 12:51:36;;;;;;;25.02;15.07;;;;;;;;;;5302140;28;20495;-70
2022/03/22 12:54:09;;;;;;;27.27;16.25;;;;;;;;;;5302803;28;20023;-71
2022/03/22 12:56:44;;;;;;;25.08;16.40;;;;;;;;;;5302598;28;20094;-70
2022/03/22 12:59:18;;;;;;;20.60;15.70;;;;;;;;;;5303123;28;20537;-69
2022/03/22 13:01:56;;;;;;;20.38;14.30;;;;;;;;;;5302966;28;20482;-70
2022/03/22 13:04:29;;;;;;;26.77;13.57;;;;;;;;;;5302533;28;20016;-69
2022/03/22 13:07:02;;;;;;;20.95;14.07;;;;;;;;;;5303025;28;20036;-69
2022/03/22 13:12:24;;;;;;;25.58;15.68;;;;;;;;;;5302346;28;20024;-69
2022/03/22 13:15:06;;;;;;;19.95;14.52;;;;;;;;;;5302418;28;20048;-69
2022/03/22 13:17:42;;;;;;;24.50;15.73;;;;;;;;;;5302140;28;20466;-69
2022/03/22 13:20:21;;;;;;;24.00;17.20;;;;;;;;;;5302093;28;20020;-70
2022/03/22 13:22:55;;;;;;;28.40;15.95;;;;;;;;;;5301120;28;20059;-69
2022/03/22 13:25:33;;;;;;;21.48;14.15;;;;;;;;;;5300952;28;20176;-69
2022/03/22 13:28:06;;;;;;;22.45;11.18;;;;;;;;;;5301468;28;20445;-69
2022/03/22 13:30:39;;;;;;;24.13;14.27;;;;;;;;;;5301919;28;20012;-70
2022/03/22 13:33:13;;;;;;;26.30;15.65;;;;;;;;;;5301443;28;20015;-69
2022/03/22 13:35:54;;;;;;;22.20;15.70;;;;;;;;;;5302314;28;20016;-69
2022/03/22 13:38:26;;;;;;;23.55;15.23;;;;;;;;;;5302132;28;20027;-68
2022/03/22 13:41:03;;;;;;;24.95;15.15;;;;;;;;;;5302065;28;20119;-69
2022/03/22 13:43:47;;;;;;;24.80;15.77;;;;;;;;;;5302080;28;20042;-69
2022/03/22 13:46:18;;;;;;;27.05;17.35;;;;;;;;;;5301590;28;20030;-69
2022/03/22 13:48:53;;;;;;;26.50;16.52;;;;;;;;;;5302153;28;20463;-69
2022/03/22 13:51:25;;;;;;;27.92;17.05;;;;;;;;;;5302527;28;20233;-68
2022/03/22 13:53:57;;;;;;;24.33;14.68;;;;;;;;;;5301126;28;20012;-69
2022/03/22 13:56:28;;;;;;;26.98;16.00;;;;;;;;;;5302799;28;20016;-69
2022/03/22 13:59:08;;;;;;;23.03;15.70;;;;;;;;;;5302281;28;20016;-69
2022/03/22 14:01:39;;;;;;;26.35;16.35;;;;;;;;;;5301430;28;20258;-69
2022/03/22 14:04:10;;;;;;;27.65;16.00;;;;;;;;;;5302100;28;20055;-69
2022/03/22 14:06:42;;;;;;;23.83;14.90;;;;;;;;;;5301033;28;20035;-68
2022/03/22 14:09:14;;;;;;;23.90;15.63;;;;;;;;;;5302061;28;20024;-68
2022/03/22 14:11:45;;;;;;;24.40;15.45;;;;;;;;;;5301211;28;20088;-69
2022/03/22 14:14:16;;;;;;;27.43;15.13;;;;;;;;;;5301304;28;20040;-69
2022/03/22 14:16:47;;;;;;;35.73;16.37;;;;;;;;;;5301705;28;20289;-69
2022/03/22 14:19:20;;;;;;;26.00;16.93;;;;;;;;;;5302307;28;20261;-69
2022/03/22 14:21:51;;;;;;;26.58;14.43;;;;;;;;;;5300911;28;20358;-69
2022/03/22 14:24:23;;;;;;;29.27;16.45;;;;;;;;;;5302229;28;20028;-68
2022/03/22 14:26:55;;;;;;;29.15;17.17;;;;;;;;;;5301632;28;20538;-69
2022/03/22 14:29:26;;;;;;;28.75;16.77;;;;;;;;;;5301481;28;20016;-70
2022/03/22 14:31:57;;;;;;;24.97;15.13;;;;;;;;;;5301840;28;20031;-69
2022/03/22 14:37:18;;;;;;;25.17;14.18;;;;;;;;;;5302092;28;20060;-69
2022/03/22 14:39:50;;;;;;;23.43;14.90;;;;;;;;;;5301463;28;20008;-69
2022/03/22 14:42:21;;;;;;;24.42;14.65;;;;;;;;;;5301537;28;20277;-70
2022/03/22 14:44:52;;;;;;;27.15;14.45;;;;;;;;;;5301342;28;20012;-70
2022/03/22 14:47:23;;;;;;;21.95;13.38;;;;;;;;;;5301929;28;20371;-69
2022/03/22 14:49:54;;;;;;;25.95;13.10;;;;;;;;;;5300449;28;20028;-69
2022/03/22 14:55:17;;;;;;;25.73;13.55;;;;;;;;;;5302173;28;20250;-68
2022/03/22 15:00:41;;;;;;;22.88;12.32;;;;;;;;;;5305741;28;20467;-68
2022/03/22 15:03:13;;;;;;;21.27;12.60;;;;;;;;;;5304991;28;20028;-69
2022/03/22 15:05:51;;;;;;;22.92;12.05;;;;;;;;;;5304663;28;20553;-68
2022/03/22 15:08:22;;;;;;;23.85;12.65;;;;;;;;;;5305901;28;20023;-68
2022/03/22 15:10:54;;;;;;;21.60;10.50;;;;;;;;;;5304434;28;20016;-67
2022/03/22 15:13:25;;;;;;;21.45;10.07;;;;;;;;;;5305378;28;20444;-67
2022/03/22 15:15:57;;;;;;;18.55;10.27;;;;;;;;;;5305063;28;20024;-68
2022/03/22 15:18:28;;;;;;;16.60;10.60;;;;;;;;;;5304578;28;20012;-67
2022/03/22 15:21:00;;;;;;;21.30;10.80;;;;;;;;;;5304748;28;20383;-68
2022/03/22 15:23:33;;;;;;;23.60;10.82;;;;;;;;;;5305026;28;20254;-68
2022/03/22 15:26:06;;;;;;;22.92;9.25;;;;;;;;;;5303787;28;20043;-68
2022/03/22 15:28:38;;;;;;;18.48;8.23;;;;;;;;;;5304817;28;20390;-70
2022/03/22 15:31:09;;;;;;;19.90;8.05;;;;;;;;;;5304058;28;20016;-69
2022/03/22 15:33:41;;;;;;;22.67;8.43;;;;;;;;;;5304631;28;20035;-69
2022/03/22 15:36:12;;;;;;;18.50;8.85;;;;;;;;;;5304707;28;20390;-69